Terminal Aerodrome Forecast
Issued by NWS New Orleans/Baton Rouge, LA

Home | Current Version | Previous Version | Text Only | Print | Product List | Glossary On
Versions: 1 2 3 4 5 6 7 8 9 10 11 12 13
000
FTUS44 KLIX 300700 AAA
TAFBTR
TAF AMD
KBTR 300759Z 3008/3106 11004KT P6SM VCSH FEW004 SCT022 SCT050
      TEMPO 3010/3014 5SM -SHRA BR BKN020
     FM301400 17010KT 6SM -SHRA BKN025 OVC050
      TEMPO 3016/3020 3SM TSRA BR BKN025CB
     FM310100 18006KT P6SM BKN050=

USA.gov is the U.S. government's official web portal to all federal, state and local government web resources and services.